sensor_id;sensor_type;location;lat;lon;timestamp;pressure;altitude;pressure_sealevel;temperature;humidity
6668;BME280;3370;47.712;9.082;2023-01-26T00:01:15;97487.22;;;0.47;87.66
6668;BME280;3370;47.712;9.082;2023-01-26T00:03:41;97482.13;;;0.41;87.75
6668;BME280;3370;47.712;9.082;2023-01-26T00:06:11;97478.78;;;0.42;87.65
6668;BME280;3370;47.712;9.082;2023-01-26T00:08:46;97475.38;;;0.42;87.80
6668;BME280;3370;47.712;9.082;2023-01-26T00:11:16;97477.06;;;0.41;87.95
6668;BME280;3370;47.712;9.082;2023-01-26T00:13:43;97475.38;;;0.42;87.70
6668;BME280;3370;47.712;9.082;2023-01-26T00:16:14;97466.97;;;0.46;87.66
6668;BME280;3370;47.712;9.082;2023-01-26T00:18:40;97471.19;;;0.48;87.29
6668;BME280;3370;47.712;9.082;2023-01-26T00:21:10;97469.50;;;0.47;87.28
6668;BME280;3370;47.712;9.082;2023-01-26T00:23:36;97462.75;;;0.46;87.37
6668;BME280;3370;47.712;9.082;2023-01-26T00:26:06;97466.97;;;0.46;87.08
6668;BME280;3370;47.712;9.082;2023-01-26T00:28:32;97465.28;;;0.45;86.54
6668;BME280;3370;47.712;9.082;2023-01-26T00:31:07;97466.97;;;0.43;86.97
6668;BME280;3370;47.712;9.082;2023-01-26T00:33:33;97471.19;;;0.42;86.92
6668;BME280;3370;47.712;9.082;2023-01-26T00:35:59;97470.34;;;0.49;86.99
6668;BME280;3370;47.712;9.082;2023-01-26T00:38:25;97459.38;;;0.47;86.62
6668;BME280;3370;47.712;9.082;2023-01-26T00:40:50;97461.91;;;0.55;86.19
6668;BME280;3370;47.712;9.082;2023-01-26T00:43:16;97460.22;;;0.55;85.35
6668;BME280;3370;47.712;9.082;2023-01-26T00:45:43;97463.59;;;0.50;85.82
6668;BME280;3370;47.712;9.082;2023-01-26T00:48:09;97468.63;;;0.45;86.44
6668;BME280;3370;47.712;9.082;2023-01-26T00:50:34;97464.44;;;0.46;85.22
6668;BME280;3370;47.712;9.082;2023-01-26T00:53:01;97455.97;;;0.36;85.65
6668;BME280;3370;47.712;9.082;2023-01-26T00:55:26;97451.75;;;0.33;86.24
6668;BME280;3370;47.712;9.082;2023-01-26T00:58:02;97457.66;;;0.34;86.32
6668;BME280;3370;47.712;9.082;2023-01-26T01:00:29;97457.66;;;0.34;86.46
6668;BME280;3370;47.712;9.082;2023-01-26T01:02:55;97450.09;;;0.43;85.63
6668;BME280;3370;47.712;9.082;2023-01-26T01:05:23;97448.41;;;0.41;85.97
6668;BME280;3370;47.712;9.082;2023-01-26T01:07:49;97449.22;;;0.40;85.75
6668;BME280;3370;47.712;9.082;2023-01-26T01:10:15;97445.00;;;0.42;85.46
6668;BME280;3370;47.712;9.082;2023-01-26T01:12:41;97451.75;;;0.38;85.41
6668;BME280;3370;47.712;9.082;2023-01-26T01:15:07;97446.72;;;0.36;85.67
6668;BME280;3370;47.712;9.082;2023-01-26T01:17:33;97456.81;;;0.40;85.49
6668;BME280;3370;47.712;9.082;2023-01-26T01:20:05;97452.63;;;0.40;84.97
6668;BME280;3370;47.712;9.082;2023-01-26T01:22:33;97457.69;;;0.40;84.90
6668;BME280;3370;47.712;9.082;2023-01-26T01:24:59;97445.84;;;0.30;84.65
6668;BME280;3370;47.712;9.082;2023-01-26T01:27:24;97443.31;;;0.27;85.01
6668;BME280;3370;47.712;9.082;2023-01-26T01:29:51;97450.06;;;0.28;85.61
6668;BME280;3370;47.712;9.082;2023-01-26T01:32:18;97445.00;;;0.32;85.67
6668;BME280;3370;47.712;9.082;2023-01-26T01:34:46;97448.38;;;0.30;85.54
6668;BME280;3370;47.712;9.082;2023-01-26T01:37:13;97437.44;;;0.29;85.56
6668;BME280;3370;47.712;9.082;2023-01-26T01:39:39;97434.06;;;0.26;85.99
6668;BME280;3370;47.712;9.082;2023-01-26T01:42:05;97435.69;;;0.16;87.08
6668;BME280;3370;47.712;9.082;2023-01-26T01:44:35;97437.41;;;0.18;87.17
6668;BME280;3370;47.712;9.082;2023-01-26T01:47:08;97429.81;;;0.17;87.46
6668;BME280;3370;47.712;9.082;2023-01-26T01:49:43;97429.00;;;0.26;86.73
6668;BME280;3370;47.712;9.082;2023-01-26T01:52:37;97436.56;;;0.24;86.54
6668;BME280;3370;47.712;9.082;2023-01-26T01:55:09;97433.19;;;0.25;86.76
6668;BME280;3370;47.712;9.082;2023-01-26T01:57:52;97424.78;;;0.29;85.80
6668;BME280;3370;47.712;9.082;2023-01-26T02:00:21;97423.91;;;0.23;86.01
6668;BME280;3370;47.712;9.082;2023-01-26T02:03:05;97428.13;;;0.21;86.19
6668;BME280;3370;47.712;9.082;2023-01-26T02:06:00;97431.53;;;0.27;85.90
6668;BME280;3370;47.712;9.082;2023-01-26T02:08:42;97423.06;;;0.25;86.28
6668;BME280;3370;47.712;9.082;2023-01-26T02:11:24;97424.75;;;0.32;85.40
6668;BME280;3370;47.712;9.082;2023-01-26T02:13:51;97420.56;;;0.31;85.34
6668;BME280;3370;47.712;9.082;2023-01-26T02:16:19;97416.34;;;0.33;85.19
6668;BME280;3370;47.712;9.082;2023-01-26T02:18:45;97418.84;;;0.19;85.40
6668;BME280;3370;47.712;9.082;2023-01-26T02:21:19;97418.00;;;0.21;85.75
6668;BME280;3370;47.712;9.082;2023-01-26T02:26:34;97407.06;;;0.18;85.85
6668;BME280;3370;47.712;9.082;2023-01-26T02:29:06;97417.13;;;0.12;86.20
6668;BME280;3370;47.712;9.082;2023-01-26T02:31:33;97402.81;;;0.17;86.86
6668;BME280;3370;47.712;9.082;2023-01-26T02:33:59;97406.19;;;0.12;86.38
6668;BME280;3370;47.712;9.082;2023-01-26T02:36:32;97397.78;;;0.27;86.20
6668;BME280;3370;47.712;9.082;2023-01-26T02:41:52;97391.88;;;0.18;84.93
6668;BME280;3370;47.712;9.082;2023-01-26T02:44:37;97390.16;;;-0.01;86.17
6668;BME280;3370;47.712;9.082;2023-01-26T02:47:16;97396.88;;;-0.05;86.94
6668;BME280;3370;47.712;9.082;2023-01-26T02:49:42;97390.16;;;-0.01;87.59
6668;BME280;3370;47.712;9.082;2023-01-26T02:52:23;97386.78;;;-0.03;88.18
6668;BME280;3370;47.712;9.082;2023-01-26T02:54:51;97385.06;;;-0.10;88.82
6668;BME280;3370;47.712;9.082;2023-01-26T02:57:36;97380.88;;;-0.08;88.96
6668;BME280;3370;47.712;9.082;2023-01-26T03:00:10;97386.75;;;-0.06;89.39
6668;BME280;3370;47.712;9.082;2023-01-26T03:02:38;97371.59;;;0.03;89.38
6668;BME280;3370;47.712;9.082;2023-01-26T03:05:04;97382.56;;;-0.03;90.03
6668;BME280;3370;47.712;9.082;2023-01-26T03:07:30;97371.63;;;0.00;89.84
6668;BME280;3370;47.712;9.082;2023-01-26T03:09:56;97368.22;;;-0.02;90.34
6668;BME280;3370;47.712;9.082;2023-01-26T03:12:26;97365.69;;;-0.02;90.29
6668;BME280;3370;47.712;9.082;2023-01-26T03:14:52;97364.88;;;0.02;90.10
6668;BME280;3370;47.712;9.082;2023-01-26T03:17:37;97363.19;;;0.10;89.59
6668;BME280;3370;47.712;9.082;2023-01-26T03:20:04;97357.31;;;0.10;89.63
6668;BME280;3370;47.712;9.082;2023-01-26T03:22:49;97342.16;;;0.13;89.02
6668;BME280;3370;47.712;9.082;2023-01-26T03:25:35;97352.25;;;0.11;88.34
6668;BME280;3370;47.712;9.082;2023-01-26T03:28:20;97351.41;;;0.09;88.95
6668;BME280;3370;47.712;9.082;2023-01-26T03:30:52;97353.09;;;0.12;88.79
6668;BME280;3370;47.712;9.082;2023-01-26T03:33:19;97351.41;;;0.17;88.27
6668;BME280;3370;47.712;9.082;2023-01-26T03:35:46;97342.13;;;0.11;88.41
6668;BME280;3370;47.712;9.082;2023-01-26T03:38:12;97346.34;;;0.15;87.98
6668;BME280;3370;47.712;9.082;2023-01-26T03:40:38;97341.28;;;0.17;88.00
6668;BME280;3370;47.712;9.082;2023-01-26T03:43:23;97331.19;;;0.18;87.72
6668;BME280;3370;47.712;9.082;2023-01-26T03:46:08;97328.63;;;0.03;88.09
6668;BME280;3370;47.712;9.082;2023-01-26T03:48:52;97329.47;;;0.08;88.18
6668;BME280;3370;47.712;9.082;2023-01-26T03:51:36;97326.13;;;0.06;88.00
6668;BME280;3370;47.712;9.082;2023-01-26T03:54:21;97327.78;;;-0.01;88.41
6668;BME280;3370;47.712;9.082;2023-01-26T03:57:05;97321.06;;;-0.02;88.79
6668;BME280;3370;47.712;9.082;2023-01-26T03:59:31;97326.94;;;-0.01;88.71
6668;BME280;3370;47.712;9.082;2023-01-26T04:02:09;97324.41;;;0.04;88.60
6668;BME280;3370;47.712;9.082;2023-01-26T04:04:54;97329.47;;;0.04;88.36
6668;BME280;3370;47.712;9.082;2023-01-26T04:07:39;97322.75;;;0.13;88.19
6668;BME280;3370;47.712;9.082;2023-01-26T04:10:24;97331.19;;;0.17;87.99
6668;BME280;3370;47.712;9.082;2023-01-26T04:12:50;97326.13;;;0.15;87.97
6668;BME280;3370;47.712;9.082;2023-01-26T04:15:36;97328.66;;;0.09;88.33
6668;BME280;3370;47.712;9.082;2023-01-26T04:18:22;97331.19;;;0.09;88.60
6668;BME280;3370;47.712;9.082;2023-01-26T04:21:07;97329.50;;;0.02;88.46
6668;BME280;3370;47.712;9.082;2023-01-26T04:23:55;97330.31;;;0.10;88.26
6668;BME280;3370;47.712;9.082;2023-01-26T04:26:26;97322.75;;;0.06;88.57
6668;BME280;3370;47.712;9.082;2023-01-26T04:29:07;97322.72;;;-0.02;88.70
6668;BME280;3370;47.712;9.082;2023-01-26T04:31:33;97312.59;;;-0.08;88.75
6668;BME280;3370;47.712;9.082;2023-01-26T04:34:00;97311.78;;;-0.07;88.86
6668;BME280;3370;47.712;9.082;2023-01-26T04:36:27;97311.75;;;-0.04;88.52
6668;BME280;3370;47.712;9.082;2023-01-26T04:38:53;97305.91;;;0.00;87.72
6668;BME280;3370;47.712;9.082;2023-01-26T04:41:19;97306.72;;;-0.03;87.72
6668;BME280;3370;47.712;9.082;2023-01-26T04:43:45;97301.66;;;0.01;87.88
6668;BME280;3370;47.712;9.082;2023-01-26T04:46:11;97295.78;;;0.06;87.38
6668;BME280;3370;47.712;9.082;2023-01-26T04:48:37;97299.97;;;-0.02;87.14
6668;BME280;3370;47.712;9.082;2023-01-26T04:51:13;97289.03;;;0.02;86.69
6668;BME280;3370;47.712;9.082;2023-01-26T04:53:39;97294.06;;;0.05;85.97
6668;BME280;3370;47.712;9.082;2023-01-26T04:56:05;97288.16;;;-0.08;86.40
6668;BME280;3370;47.712;9.082;2023-01-26T04:58:33;97289.00;;;-0.16;87.34
6668;BME280;3370;47.712;9.082;2023-01-26T05:00:59;97283.94;;;-0.16;88.12
6668;BME280;3370;47.712;9.082;2023-01-26T05:03:26;97285.66;;;-0.12;87.58
6668;BME280;3370;47.712;9.082;2023-01-26T05:05:53;97279.72;;;-0.11;87.86
6668;BME280;3370;47.712;9.082;2023-01-26T05:08:20;97289.03;;;-0.10;87.73
6668;BME280;3370;47.712;9.082;2023-01-26T05:10:47;97279.75;;;-0.05;87.67
6668;BME280;3370;47.712;9.082;2023-01-26T05:13:13;97283.13;;;-0.11;87.68
6668;BME280;3370;47.712;9.082;2023-01-26T05:15:39;97289.84;;;-0.13;88.11
6668;BME280;3370;47.712;9.082;2023-01-26T05:18:05;97279.75;;;-0.05;87.72
6668;BME280;3370;47.712;9.082;2023-01-26T05:20:32;97290.72;;;-0.03;87.04
6668;BME280;3370;47.712;9.082;2023-01-26T05:22:58;97282.28;;;0.04;86.61
6668;BME280;3370;47.712;9.082;2023-01-26T05:25:24;97280.59;;;-0.03;86.58
6668;BME280;3370;47.712;9.082;2023-01-26T05:27:50;97285.66;;;-0.02;86.40
6668;BME280;3370;47.712;9.082;2023-01-26T05:30:17;97279.75;;;0.01;86.67
6668;BME280;3370;47.712;9.082;2023-01-26T05:32:44;97283.97;;;-0.01;86.80
6668;BME280;3370;47.712;9.082;2023-01-26T05:35:10;97278.06;;;0.08;87.00
6668;BME280;3370;47.712;9.082;2023-01-26T05:37:36;97285.66;;;0.09;86.15
6668;BME280;3370;47.712;9.082;2023-01-26T05:40:02;97277.22;;;0.04;86.11
6668;BME280;3370;47.712;9.082;2023-01-26T05:42:29;97278.91;;;0.05;86.33
6668;BME280;3370;47.712;9.082;2023-01-26T05:44:54;97271.31;;;0.05;85.91
6668;BME280;3370;47.712;9.082;2023-01-26T05:47:20;97275.53;;;0.06;86.08
6668;BME280;3370;47.712;9.082;2023-01-26T05:49:46;97280.59;;;0.06;86.31
6668;BME280;3370;47.712;9.082;2023-01-26T05:52:17;97287.34;;;0.06;85.40
6668;BME280;3370;47.712;9.082;2023-01-26T05:54:43;97290.72;;;0.00;86.05
6668;BME280;3370;47.712;9.082;2023-01-26T05:57:09;97283.13;;;-0.02;86.05
6668;BME280;3370;47.712;9.082;2023-01-26T05:59:35;97290.72;;;0.00;86.21
6668;BME280;3370;47.712;9.082;2023-01-26T06:02:01;97293.25;;;0.08;85.59
6668;BME280;3370;47.712;9.082;2023-01-26T06:04:27;97296.59;;;-0.04;85.99
6668;BME280;3370;47.712;9.082;2023-01-26T06:06:57;97302.50;;;-0.07;86.50
6668;BME280;3370;47.712;9.082;2023-01-26T06:09:24;97301.66;;;-0.06;86.57
6668;BME280;3370;47.712;9.082;2023-01-26T06:11:50;97301.66;;;-0.09;87.08
6668;BME280;3370;47.712;9.082;2023-01-26T06:14:16;97310.09;;;-0.07;86.86
6668;BME280;3370;47.712;9.082;2023-01-26T06:16:41;97305.84;;;-0.09;86.79
6668;BME280;3370;47.712;9.082;2023-01-26T06:19:09;97304.19;;;-0.04;86.87
6668;BME280;3370;47.712;9.082;2023-01-26T06:21:35;97311.78;;;-0.03;86.88
6668;BME280;3370;47.712;9.082;2023-01-26T06:24:01;97316.00;;;0.06;86.34
6668;BME280;3370;47.712;9.082;2023-01-26T06:26:27;97316.81;;;0.04;85.85
6668;BME280;3370;47.712;9.082;2023-01-26T06:28:53;97316.00;;;-0.02;86.17
6668;BME280;3370;47.712;9.082;2023-01-26T06:31:20;97314.28;;;0.04;85.77
6668;BME280;3370;47.712;9.082;2023-01-26T06:33:48;97307.56;;;-0.01;85.56
6668;BME280;3370;47.712;9.082;2023-01-26T06:36:15;97317.69;;;0.04;85.65
6668;BME280;3370;47.712;9.082;2023-01-26T06:38:46;97313.47;;;0.05;85.42
6668;BME280;3370;47.712;9.082;2023-01-26T06:41:12;97312.63;;;0.04;85.21
6668;BME280;3370;47.712;9.082;2023-01-26T06:43:39;97308.41;;;0.08;84.75
6668;BME280;3370;47.712;9.082;2023-01-26T06:46:07;97305.03;;;0.04;84.71
6668;BME280;3370;47.712;9.082;2023-01-26T06:48:34;97314.31;;;0.02;84.40
6668;BME280;3370;47.712;9.082;2023-01-26T06:53:54;97302.50;;;-0.02;83.64
6668;BME280;3370;47.712;9.082;2023-01-26T06:56:21;97297.47;;;-0.05;83.84
6668;BME280;3370;47.712;9.082;2023-01-26T06:58:47;97294.06;;;-0.04;83.95
6668;BME280;3370;47.712;9.082;2023-01-26T07:01:22;97294.09;;;0.08;83.26
6668;BME280;3370;47.712;9.082;2023-01-26T07:03:51;97298.31;;;0.09;83.04
6668;BME280;3370;47.712;9.082;2023-01-26T07:06:17;97299.97;;;0.01;83.29
6668;BME280;3370;47.712;9.082;2023-01-26T07:08:43;97296.59;;;-0.03;83.58
6668;BME280;3370;47.712;9.082;2023-01-26T07:11:10;97303.34;;;-0.03;83.33
6668;BME280;3370;47.712;9.082;2023-01-26T07:13:38;97294.09;;;-0.07;83.95
6668;BME280;3370;47.712;9.082;2023-01-26T07:16:07;97298.31;;;-0.02;81.99
6668;BME280;3370;47.712;9.082;2023-01-26T07:18:34;97293.25;;;-0.03;82.83
6668;BME280;3370;47.712;9.082;2023-01-26T07:21:14;97289.88;;;0.04;82.49
6668;BME280;3370;47.712;9.082;2023-01-26T07:23:42;97297.47;;;0.06;81.68
6668;BME280;3370;47.712;9.082;2023-01-26T07:26:08;97297.44;;;0.07;81.92
6668;BME280;3370;47.712;9.082;2023-01-26T07:28:34;97294.94;;;0.06;81.81
6668;BME280;3370;47.712;9.082;2023-01-26T07:31:01;97308.41;;;-0.02;82.35
6668;BME280;3370;47.712;9.082;2023-01-26T07:33:31;97304.19;;;-0.07;82.86
6668;BME280;3370;47.712;9.082;2023-01-26T07:35:58;97305.06;;;0.06;82.03
6668;BME280;3370;47.712;9.082;2023-01-26T07:38:25;97300.81;;;-0.03;82.39
6668;BME280;3370;47.712;9.082;2023-01-26T07:40:51;97299.13;;;-0.01;82.75
6668;BME280;3370;47.712;9.082;2023-01-26T07:43:17;97313.47;;;0.05;82.34
6668;BME280;3370;47.712;9.082;2023-01-26T07:45:49;97304.19;;;-0.01;82.94
6668;BME280;3370;47.712;9.082;2023-01-26T07:48:16;97302.50;;;-0.02;83.24
6668;BME280;3370;47.712;9.082;2023-01-26T07:50:44;97300.81;;;-0.03;83.23
6668;BME280;3370;47.712;9.082;2023-01-26T07:53:10;97289.03;;;0.02;83.21
6668;BME280;3370;47.712;9.082;2023-01-26T07:55:40;97299.16;;;0.02;83.08
6668;BME280;3370;47.712;9.082;2023-01-26T07:58:10;97297.47;;;-0.04;83.32
6668;BME280;3370;47.712;9.082;2023-01-26T08:00:36;97294.09;;;-0.01;83.68
6668;BME280;3370;47.712;9.082;2023-01-26T08:03:02;97289.88;;;0.04;83.38
6668;BME280;3370;47.712;9.082;2023-01-26T08:05:28;97291.56;;;0.10;83.20
6668;BME280;3370;47.712;9.082;2023-01-26T08:08:00;97291.56;;;0.08;82.52
6668;BME280;3370;47.712;9.082;2023-01-26T08:10:29;97292.38;;;0.10;82.59
6668;BME280;3370;47.712;9.082;2023-01-26T08:13:00;97294.06;;;0.07;82.70
6668;BME280;3370;47.712;9.082;2023-01-26T08:15:27;97294.91;;;0.07;82.14
6668;BME280;3370;47.712;9.082;2023-01-26T08:17:53;97299.13;;;0.08;82.24
6668;BME280;3370;47.712;9.082;2023-01-26T08:20:20;97296.59;;;0.08;82.03
6668;BME280;3370;47.712;9.082;2023-01-26T08:22:46;97288.19;;;0.08;82.31
6668;BME280;3370;47.712;9.082;2023-01-26T08:25:11;97298.28;;;0.14;81.44
6668;BME280;3370;47.712;9.082;2023-01-26T08:27:37;97292.38;;;0.07;81.13
6668;BME280;3370;47.712;9.082;2023-01-26T08:30:04;97289.00;;;0.05;81.68
6668;BME280;3370;47.712;9.082;2023-01-26T08:32:31;97289.00;;;0.05;81.61
6668;BME280;3370;47.712;9.082;2023-01-26T08:34:56;97291.56;;;0.11;81.56
6668;BME280;3370;47.712;9.082;2023-01-26T08:37:22;97293.25;;;0.08;81.37
6668;BME280;3370;47.712;9.082;2023-01-26T08:39:48;97287.34;;;0.03;81.63
6668;BME280;3370;47.712;9.082;2023-01-26T08:42:15;97278.91;;;0.08;81.30
6668;BME280;3370;47.712;9.082;2023-01-26T08:44:41;97278.06;;;0.17;80.43
6668;BME280;3370;47.712;9.082;2023-01-26T08:47:07;97279.75;;;0.19;80.55
6668;BME280;3370;47.712;9.082;2023-01-26T08:49:32;97280.59;;;0.12;80.34
6668;BME280;3370;47.712;9.082;2023-01-26T08:51:58;97282.28;;;0.10;80.49
6668;BME280;3370;47.712;9.082;2023-01-26T08:54:24;97282.28;;;0.13;80.98
6668;BME280;3370;47.712;9.082;2023-01-26T08:56:49;97281.44;;;0.16;80.71
6668;BME280;3370;47.712;9.082;2023-01-26T08:59:15;97287.34;;;0.13;81.17
6668;BME280;3370;47.712;9.082;2023-01-26T09:01:41;97294.91;;;0.18;80.23
6668;BME280;3370;47.712;9.082;2023-01-26T09:04:07;97283.13;;;0.23;80.38
6668;BME280;3370;47.712;9.082;2023-01-26T09:06:32;97280.59;;;0.22;80.68
6668;BME280;3370;47.712;9.082;2023-01-26T09:08:58;97287.34;;;0.24;80.08
6668;BME280;3370;47.712;9.082;2023-01-26T09:11:24;97281.44;;;0.27;79.96
6668;BME280;3370;47.712;9.082;2023-01-26T09:13:51;97278.06;;;0.26;79.59
6668;BME280;3370;47.712;9.082;2023-01-26T09:16:23;97281.41;;;0.47;78.20
6668;BME280;3370;47.712;9.082;2023-01-26T09:18:53;97284.81;;;0.33;78.92
6668;BME280;3370;47.712;9.082;2023-01-26T09:21:19;97278.91;;;0.27;78.97
6668;BME280;3370;47.712;9.082;2023-01-26T09:23:46;97278.91;;;0.27;79.48
6668;BME280;3370;47.712;9.082;2023-01-26T09:26:11;97281.41;;;0.34;78.51
6668;BME280;3370;47.712;9.082;2023-01-26T09:28:37;97288.19;;;0.35;78.82
6668;BME280;3370;47.712;9.082;2023-01-26T09:31:05;97287.31;;;0.38;78.68
6668;BME280;3370;47.712;9.082;2023-01-26T09:33:31;97288.19;;;0.40;78.71
6668;BME280;3370;47.712;9.082;2023-01-26T09:36:06;97284.78;;;0.40;78.00
6668;BME280;3370;47.712;9.082;2023-01-26T09:38:33;97283.94;;;0.50;77.75
6668;BME280;3370;47.712;9.082;2023-01-26T09:44:17;97276.38;;;0.44;78.04
6668;BME280;3370;47.712;9.082;2023-01-26T09:52:30;97282.25;;;0.50;78.01
6668;BME280;3370;47.712;9.082;2023-01-26T09:55:01;97282.28;;;0.47;77.90
6668;BME280;3370;47.712;9.082;2023-01-26T09:58:21;97279.72;;;0.67;76.83
6668;BME280;3370;47.712;9.082;2023-01-26T10:00:51;97274.66;;;0.56;77.19
6668;BME280;3370;47.712;9.082;2023-01-26T10:06:23;97283.09;;;0.59;77.42
6668;BME280;3370;47.712;9.082;2023-01-26T10:08:58;97283.91;;;0.65;77.22
6668;BME280;3370;47.712;9.082;2023-01-26T10:11:35;97285.59;;;0.62;77.34
6668;BME280;3370;47.712;9.082;2023-01-26T10:14:19;97282.22;;;0.72;76.01
6668;BME280;3370;47.712;9.082;2023-01-26T10:16:49;97273.81;;;0.61;75.77
6668;BME280;3370;47.712;9.082;2023-01-26T10:19:38;97272.97;;;0.57;76.84
6668;BME280;3370;47.712;9.082;2023-01-26T10:22:31;97269.59;;;0.58;77.48
6668;BME280;3370;47.712;9.082;2023-01-26T10:24:59;97266.22;;;0.59;76.78
6668;BME280;3370;47.712;9.082;2023-01-26T10:27:27;97267.06;;;0.53;76.70
6668;BME280;3370;47.712;9.082;2023-01-26T10:29:54;97271.31;;;0.54;76.95
6668;BME280;3370;47.712;9.082;2023-01-26T10:32:19;97265.38;;;0.55;77.23
6668;BME280;3370;47.712;9.082;2023-01-26T10:34:48;97267.06;;;0.56;76.97
6668;BME280;3370;47.712;9.082;2023-01-26T10:37:28;97264.53;;;0.63;77.19
6668;BME280;3370;47.712;9.082;2023-01-26T10:40:05;97261.13;;;0.70;77.03
6668;BME280;3370;47.712;9.082;2023-01-26T10:42:39;97262.81;;;0.68;76.99
6668;BME280;3370;47.712;9.082;2023-01-26T10:45:23;97255.19;;;0.80;76.46
6668;BME280;3370;47.712;9.082;2023-01-26T10:50:29;97259.44;;;0.70;76.77
6668;BME280;3370;47.712;9.082;2023-01-26T10:53:02;97256.03;;;0.77;77.02
6668;BME280;3370;47.712;9.082;2023-01-26T10:55:31;97261.94;;;0.84;76.20
6668;BME280;3370;47.712;9.082;2023-01-26T10:57:58;97262.81;;;0.77;76.62
6668;BME280;3370;47.712;9.082;2023-01-26T11:00:31;97263.63;;;0.82;76.96
6668;BME280;3370;47.712;9.082;2023-01-26T11:05:36;97265.34;;;0.80;75.84
6668;BME280;3370;47.712;9.082;2023-01-26T11:08:02;97261.09;;;0.81;76.42
6668;BME280;3370;47.712;9.082;2023-01-26T11:10:37;97265.31;;;0.89;75.90
6668;BME280;3370;47.712;9.082;2023-01-26T11:13:17;97265.25;;;0.92;75.93
6668;BME280;3370;47.712;9.082;2023-01-26T11:16:13;97265.31;;;0.86;75.54
6668;BME280;3370;47.712;9.082;2023-01-26T11:18:59;97261.94;;;0.87;76.22
6668;BME280;3370;47.712;9.082;2023-01-26T11:21:54;97266.13;;;0.88;76.64
6668;BME280;3370;47.712;9.082;2023-01-26T11:24:51;97262.72;;;0.92;76.63
6668;BME280;3370;47.712;9.082;2023-01-26T11:30:36;97256.88;;;0.84;75.78
6668;BME280;3370;47.712;9.082;2023-01-26T11:33:43;97259.44;;;0.76;76.07
6668;BME280;3370;47.712;9.082;2023-01-26T11:45:00;97251.91;;;0.56;76.29
6668;BME280;3370;47.712;9.082;2023-01-26T11:47:45;97252.69;;;0.69;76.72
6668;BME280;3370;47.712;9.082;2023-01-26T11:50:44;97253.56;;;0.64;76.31
6668;BME280;3370;47.712;9.082;2023-01-26T11:56:29;97239.25;;;0.58;76.36
6668;BME280;3370;47.712;9.082;2023-01-26T11:59:09;97241.75;;;0.60;76.96
6668;BME280;3370;47.712;9.082;2023-01-26T12:01:55;97240.94;;;0.53;77.09
6668;BME280;3370;47.712;9.082;2023-01-26T12:04:24;97237.56;;;0.51;77.63
6668;BME280;3370;47.712;9.082;2023-01-26T12:06:59;97235.84;;;0.61;77.64
6668;BME280;3370;47.712;9.082;2023-01-26T12:09:37;97229.94;;;0.59;77.75
6668;BME280;3370;47.712;9.082;2023-01-26T12:12:14;97227.41;;;0.66;77.01
6668;BME280;3370;47.712;9.082;2023-01-26T12:14:49;97221.53;;;0.53;77.83
6668;BME280;3370;47.712;9.082;2023-01-26T12:26:11;97218.19;;;0.25;78.21
6668;BME280;3370;47.712;9.082;2023-01-26T12:28:41;97212.28;;;0.34;77.99
6668;BME280;3370;47.712;9.082;2023-01-26T12:31:28;97215.66;;;0.27;78.81
6668;BME280;3370;47.712;9.082;2023-01-26T12:33:56;97208.06;;;0.36;77.78
6668;BME280;3370;47.712;9.082;2023-01-26T12:39:23;97218.19;;;0.36;78.17
6668;BME280;3370;47.712;9.082;2023-01-26T12:44:59;97203.84;;;0.46;78.04
6668;BME280;3370;47.712;9.082;2023-01-26T12:47:43;97202.16;;;0.49;78.32
6668;BME280;3370;47.712;9.082;2023-01-26T12:50:32;97208.03;;;0.51;78.69
6668;BME280;3370;47.712;9.082;2023-01-26T12:53:25;97211.38;;;0.60;77.70
6668;BME280;3370;47.712;9.082;2023-01-26T12:56:16;97207.19;;;0.57;78.08
6668;BME280;3370;47.712;9.082;2023-01-26T12:58:48;97205.47;;;0.64;77.65
6668;BME280;3370;47.712;9.082;2023-01-26T13:01:20;97192.00;;;0.54;78.23
6668;BME280;3370;47.712;9.082;2023-01-26T13:03:57;97190.31;;;0.54;78.00
6668;BME280;3370;47.712;9.082;2023-01-26T13:06:27;97196.22;;;0.55;78.25
6668;BME280;3370;47.712;9.082;2023-01-26T13:11:42;97191.13;;;0.60;77.94
6668;BME280;3370;47.712;9.082;2023-01-26T13:19:54;97188.59;;;0.64;77.79
6668;BME280;3370;47.712;9.082;2023-01-26T13:24:56;97190.25;;;0.68;77.05
6668;BME280;3370;47.712;9.082;2023-01-26T13:30:03;97169.16;;;0.74;76.56
6668;BME280;3370;47.712;9.082;2023-01-26T13:32:50;97176.78;;;0.65;77.03
6668;BME280;3370;47.712;9.082;2023-01-26T13:35:20;97173.38;;;0.72;76.96
6668;BME280;3370;47.712;9.082;2023-01-26T13:38:00;97172.53;;;0.73;76.93
6668;BME280;3370;47.712;9.082;2023-01-26T13:40:35;97174.19;;;0.77;76.47
6668;BME280;3370;47.712;9.082;2023-01-26T13:43:27;97170.81;;;0.81;76.60
6668;BME280;3370;47.712;9.082;2023-01-26T13:49:01;97174.19;;;0.74;76.41
6668;BME280;3370;47.712;9.082;2023-01-26T13:51:33;97169.16;;;0.72;76.20
6668;BME280;3370;47.712;9.082;2023-01-26T13:54:13;97180.97;;;0.69;76.54
6668;BME280;3370;47.712;9.082;2023-01-26T13:56:41;97171.69;;;0.74;75.37
6668;BME280;3370;47.712;9.082;2023-01-26T13:59:17;97175.91;;;0.69;75.60
6668;BME280;3370;47.712;9.082;2023-01-26T14:01:53;97183.53;;;0.66;76.32
6668;BME280;3370;47.712;9.082;2023-01-26T14:07:11;97184.38;;;0.65;76.67
6668;BME280;3370;47.712;9.082;2023-01-26T14:09:46;97187.75;;;0.64;76.46
6668;BME280;3370;47.712;9.082;2023-01-26T14:12:20;97183.53;;;0.64;76.74
6668;BME280;3370;47.712;9.082;2023-01-26T14:14:55;97178.44;;;0.70;76.76
6668;BME280;3370;47.712;9.082;2023-01-26T14:17:33;97184.38;;;0.62;76.96
6668;BME280;3370;47.712;9.082;2023-01-26T14:25:37;97180.19;;;0.59;77.23
6668;BME280;3370;47.712;9.082;2023-01-26T14:28:04;97186.06;;;0.63;77.13
6668;BME280;3370;47.712;9.082;2023-01-26T14:30:33;97186.09;;;0.58;76.50
6668;BME280;3370;47.712;9.082;2023-01-26T14:35:30;97182.69;;;0.57;77.28
6668;BME280;3370;47.712;9.082;2023-01-26T14:38:16;97183.56;;;0.58;77.69
6668;BME280;3370;47.712;9.082;2023-01-26T14:40:50;97181.03;;;0.50;77.38
6668;BME280;3370;47.712;9.082;2023-01-26T14:43:17;97189.50;;;0.46;77.69
6668;BME280;3370;47.712;9.082;2023-01-26T14:51:24;97195.41;;;0.42;77.81
6668;BME280;3370;47.712;9.082;2023-01-26T14:53:55;97201.28;;;0.53;77.22
6668;BME280;3370;47.712;9.082;2023-01-26T14:56:37;97192.06;;;0.40;78.09
6668;BME280;3370;47.712;9.082;2023-01-26T14:59:06;97196.25;;;0.38;78.55
6668;BME280;3370;47.712;9.082;2023-01-26T15:01:34;97193.72;;;0.44;78.66
6668;BME280;3370;47.712;9.082;2023-01-26T15:04:04;97197.91;;;0.48;78.53
6668;BME280;3370;47.712;9.082;2023-01-26T15:06:31;97194.56;;;0.46;78.51
6668;BME280;3370;47.712;9.082;2023-01-26T15:09:04;97188.66;;;0.41;78.80
6668;BME280;3370;47.712;9.082;2023-01-26T15:11:38;97193.72;;;0.46;78.41
6668;BME280;3370;47.712;9.082;2023-01-26T15:14:59;97194.56;;;0.46;78.75
6668;BME280;3370;47.712;9.082;2023-01-26T15:19:53;97196.28;;;0.36;78.47
6668;BME280;3370;47.712;9.082;2023-01-26T15:22:22;97198.81;;;0.33;79.21
6668;BME280;3370;47.712;9.082;2023-01-26T15:25:12;97200.50;;;0.28;79.85
6668;BME280;3370;47.712;9.082;2023-01-26T15:27:40;97199.63;;;0.31;79.65